Nearby METAR Reports

 

EGUW - Wattisham Raf, United Kingdom
Distance from station: SW 12mi, 19km
Updated: 28/06/2022 03:50
Clear
Clear
 Wind from SW
Wind: SW 3 mph , 6 km/h
Temperature: 9°C
Dew Point: 6°C
Humidity: 82%
Barometer: 1019 hPa
Clouds: Clear
Visibility: 6 miles , 10 km
2022/06/28 02:50 EGUW 280250Z AUTO 23003KT 9999 NCD 09/06 Q1019
EGUL - Lakenheath Raf, United Kingdom
Distance from station: WNW 29mi, 47km
Updated: 28/06/2022 03:56
Clear
Clear
 Wind from calm
Wind: Calm
Temperature: 10°C
Dew Point: 5°C
Humidity: 71%
Barometer: 1018.6 hPa
Clouds: Clear
Visibility: 6 miles , 10 km
2022/06/28 02:56 EGUL 280256Z AUTO 00000KT 9999 CLR 10/05 A3008 RMK AO2 SLP190 T00960046 52007 $
 
EGUN - Mildenhall Raf, United Kingdom
Distance from station: WNW 32mi, 51km
Updated: 28/06/2022 04:56
Partly cloudy
Partly cloudy
 Wind from SSE
Wind: SSE 5 mph , 7 km/h
Temperature: 9°C
Wind Chill: 8°C
Dew Point: 6°C
Humidity: 82%
Barometer: 1019 hPa
Clouds: Partly cloudy
Visibility: 6 miles , 10 km
Cloud details: Few Clouds 2134 m
Partly cloudy 4572 m
Partly cloudy 7010 m
2022/06/28 03:56 EGUN 280356Z 15004KT 9999 FEW070 SCT150 SCT230 09/06 A3009 RMK AO2A SLP193 T00880059 $
EGSH - Norwich Wea Cntr, United Kingdom
Distance from station: N 32mi, 52km
Updated: 28/06/2022 04:50
Clear
Clear
 Wind from SSW
Wind: SSW 5 mph , 7 km/h
Temperature: 9°C
Wind Chill: 8°C
Dew Point: 5°C
Humidity: 76%
Barometer: 1019 hPa
Clouds: Clear
Visibility: 6 miles , 10 km
2022/06/28 03:50 EGSH 280350Z AUTO 20004KT 180V240 9999 NCD 09/05 Q1019
 
EGYM - Marham Raf, United Kingdom
Distance from station: NW 39mi, 62km
Updated: 28/06/2022 04:50
Clear
Clear
 Wind from SE
Wind: SE 5 mph , 7 km/h
Temperature: 8°C
Wind Chill: 7°C
Dew Point: 5°C
Humidity: 82%
Barometer: 1019 hPa
Summary: Clear
Visibility: greater than 7 miles , 10 km
2022/06/28 03:50 EGYM 280350Z 14004KT CAVOK 08/05 Q1019 BLU
EGSC - Cambridge, United Kingdom
Distance from station: W 43mi, 69km
Updated: 27/06/2022 17:50
NOT Current
Mostly cloudy
Mostly cloudy
 Wind from SSW
Wind: SSW 10 mph , 17 km/h
Temperature: 16°C
Dew Point: 10°C
Humidity: 68%
Barometer: 1016 hPa
Clouds: Mostly cloudy
Visibility: 6 miles , 10 km
Cloud details: Mostly cloudy 1006 m
2022/06/27 16:50 EGSC 271650Z 21009KT 9999 BKN033 16/10 Q1016
 
EGSS - Stansted Airport, United Kingdom
Distance from station: WSW 47mi, 76km
Updated: 28/06/2022 04:50
Clear
Clear
 Wind from S
Wind: S 5 mph , 7 km/h
Temperature: 8°C
Wind Chill: 7°C
Dew Point: 7°C
Humidity: 93%
Barometer: 1020 hPa
Clouds: Clear
Visibility: 6 miles , 10 km
2022/06/28 03:50 EGSS 280350Z AUTO 19004KT 9999 NCD 08/07 Q1020
EGMC - Southend-On-Sea, United Kingdom
Distance from station: SSW 50mi, 80km
Updated: 28/06/2022 04:50
Clear
Clear
 Wind from SSW
Wind: SSW 7 mph , 11 km/h
Temperature: 10°C
Wind Chill: 8°C
Dew Point: 9°C
Humidity: 94%
Barometer: 1020 hPa
Summary: Clear
Visibility: greater than 7 miles , 10 km
2022/06/28 03:50 EGMC 280350Z 21006KT CAVOK 10/09 Q1020